Archival Weather

Snohomish County (Paine Fld)

Everett, Washington (KPAE)

Report from: Sunday, October 29, 2023 3:53 PM PDT
Current time: Friday, June 14, 2024 6:02 AM PDT

Current weather – Weather history – Daily summaries
Weather forecast

Temperature10.0°C (50.0°F)
Wind chill8.5°C (47.2°F)
Dew point-0.6°C (30.9°F)
Winds 6 kts (3.1 m/s, 6.9 mph) North (360°)
Visibility10 mi. (16.1 km)
Clouds Sky clear
Altimeter30.41 in.Hg (1030 mB)
Relative humidity48 %
Density altitude-1,078 ft. (-329 m)
Sea-level pressure103.0 kPa (1030 mB, 30.42 in.Hg)
Remarks Automated weather observing station with precipitation discriminator
Flight conditions Visual Meteorological Conditions
Raw dataKPAE 292253Z 36006KT 10SM CLR 10/M01 A3041 RMK AO2 SLP302 T01001006
An error has occurred. This application may no longer respond until reloaded. Reload 🗙